createdAt,value
2023-04-08T00:00:27.346Z,18.97
2023-04-08T00:02:54.080Z,18.96
2023-04-08T00:05:20.870Z,18.97
2023-04-08T00:07:47.478Z,18.96
2023-04-08T00:10:14.125Z,18.95
2023-04-08T00:12:40.963Z,18.96
2023-04-08T00:15:08.389Z,18.95
2023-04-08T00:17:34.999Z,18.95
2023-04-08T00:20:02.274Z,18.95
2023-04-08T00:22:28.965Z,18.95
2023-04-08T00:24:55.787Z,18.95
2023-04-08T00:27:22.556Z,18.93
2023-04-08T00:29:49.172Z,18.95
2023-04-08T00:32:16.050Z,18.93
2023-04-08T00:34:43.281Z,18.93
2023-04-08T00:37:10.412Z,18.94
2023-04-08T00:39:37.725Z,18.94
2023-04-08T00:42:04.320Z,18.94
2023-04-08T00:44:31.322Z,18.93
2023-04-08T00:46:57.970Z,18.92
2023-04-08T00:49:24.585Z,18.92
2023-04-08T00:51:51.589Z,18.93
2023-04-08T00:54:18.335Z,18.92
2023-04-08T00:56:45.080Z,18.91
2023-04-08T00:59:11.718Z,18.92
2023-04-08T01:01:45.923Z,18.92
2023-04-08T01:04:21.798Z,18.92
2023-04-08T01:06:56.356Z,18.92
2023-04-08T01:09:24.242Z,18.93
2023-04-08T01:11:51.153Z,18.94
2023-04-08T01:14:23.933Z,18.92
2023-04-08T01:16:50.576Z,18.92
2023-04-08T01:19:33.311Z,18.91
2023-04-08T01:22:33.482Z,18.90
2023-04-08T01:25:05.432Z,18.90
2023-04-08T01:27:32.271Z,18.89
2023-04-08T01:29:59.470Z,18.90
2023-04-08T01:32:27.225Z,18.91
2023-04-08T01:34:54.663Z,18.89
2023-04-08T01:37:21.363Z,18.89
2023-04-08T01:39:48.762Z,18.89
2023-04-08T01:42:15.525Z,18.90
2023-04-08T01:44:42.350Z,18.90
2023-04-08T01:47:10.684Z,18.89
2023-04-08T01:49:37.384Z,18.90
2023-04-08T01:52:05.050Z,18.90
2023-04-08T01:54:31.627Z,18.90
2023-04-08T01:56:58.233Z,18.89
2023-04-08T01:59:24.870Z,18.90
2023-04-08T02:01:51.576Z,18.90
2023-04-08T02:04:18.311Z,18.89
2023-04-08T02:06:45.077Z,18.90
2023-04-08T02:09:11.657Z,18.89
2023-04-08T02:11:38.325Z,18.89
2023-04-08T02:14:05.033Z,18.89
2023-04-08T02:16:37.478Z,18.89
2023-04-08T02:19:10.591Z,18.89
2023-04-08T02:21:42.778Z,18.89
2023-04-08T02:24:09.384Z,18.89
2023-04-08T02:26:36.623Z,18.89
2023-04-08T02:29:03.950Z,18.88
2023-04-08T02:31:30.760Z,18.89
2023-04-08T02:33:57.845Z,18.89
2023-04-08T02:36:24.464Z,18.89
2023-04-08T02:38:51.355Z,18.89
2023-04-08T02:41:18.162Z,18.88
2023-04-08T02:43:44.971Z,18.89
2023-04-08T02:46:13.795Z,18.88
2023-04-08T02:48:40.656Z,18.88
2023-04-08T02:51:07.223Z,18.88
2023-04-08T02:53:33.845Z,18.89
2023-04-08T02:56:00.534Z,18.88
2023-04-08T02:58:27.137Z,18.88
2023-04-08T03:00:53.941Z,18.87
2023-04-08T03:03:27.385Z,18.86
2023-04-08T03:05:54.387Z,18.85
2023-04-08T03:08:21.171Z,18.84
2023-04-08T03:10:48.103Z,18.82
2023-04-08T03:13:15.414Z,18.80
2023-04-08T03:15:42.197Z,18.78
2023-04-08T03:18:08.829Z,18.75
2023-04-08T03:20:35.616Z,18.71
2023-04-08T03:23:02.436Z,18.67
2023-04-08T03:25:29.292Z,18.64
2023-04-08T03:27:56.303Z,18.61
2023-04-08T03:30:23.186Z,18.58
2023-04-08T03:32:52.456Z,18.56
2023-04-08T03:35:19.392Z,18.56
2023-04-08T03:37:47.151Z,18.54
2023-04-08T03:40:13.745Z,18.51
2023-04-08T03:42:40.729Z,18.49
2023-04-08T03:45:07.759Z,18.48
2023-04-08T03:47:34.600Z,18.46
2023-04-08T03:50:03.349Z,18.43
2023-04-08T03:52:32.278Z,18.41
2023-04-08T03:54:58.840Z,18.39
2023-04-08T03:57:25.524Z,18.36
2023-04-08T03:59:52.153Z,18.33
2023-04-08T04:02:18.810Z,18.31
2023-04-08T04:04:45.572Z,18.29
2023-04-08T04:07:12.214Z,18.27
2023-04-08T04:09:38.814Z,18.25
2023-04-08T04:12:05.579Z,18.21
2023-04-08T04:14:32.216Z,18.20
2023-04-08T04:16:58.795Z,18.17
2023-04-08T04:19:25.426Z,18.15
2023-04-08T04:21:52.006Z,18.13
2023-04-08T04:24:18.665Z,18.12
2023-04-08T04:26:45.481Z,18.10
2023-04-08T04:29:12.204Z,18.09
2023-04-08T04:31:38.917Z,18.09
2023-04-08T04:34:05.849Z,18.06
2023-04-08T04:36:32.592Z,18.05
2023-04-08T04:38:59.225Z,18.05
2023-04-08T04:41:27.310Z,18.03
2023-04-08T04:43:54.028Z,18.04
2023-04-08T04:46:20.881Z,18.04
2023-04-08T04:48:47.799Z,18.04
2023-04-08T04:51:14.901Z,18.02
2023-04-08T04:53:41.557Z,18.02
2023-04-08T04:56:08.127Z,18.01
2023-04-08T04:58:34.717Z,17.98
2023-04-08T05:01:01.424Z,18.01
2023-04-08T05:03:28.077Z,18.14
2023-04-08T05:05:55.053Z,18.29
2023-04-08T05:08:21.835Z,18.43
2023-04-08T05:10:50.732Z,18.63
2023-04-08T05:13:18.151Z,18.80
2023-04-08T05:15:48.073Z,18.95
2023-04-08T05:18:14.952Z,19.12
2023-04-08T05:20:41.582Z,19.35
2023-04-08T05:23:08.705Z,19.59
2023-04-08T05:25:35.456Z,19.84
2023-04-08T05:28:02.264Z,20.07
2023-04-08T05:30:28.962Z,20.23
2023-04-08T05:32:57.076Z,20.36
2023-04-08T05:35:25.390Z,20.44
2023-04-08T05:37:52.035Z,20.52
2023-04-08T05:40:18.693Z,20.53
2023-04-08T05:42:45.344Z,20.52
2023-04-08T05:45:11.956Z,20.51
2023-04-08T05:47:38.632Z,20.48
2023-04-08T05:50:05.937Z,20.43
2023-04-08T05:52:32.563Z,20.37
2023-04-08T05:54:59.322Z,20.30
2023-04-08T05:57:25.889Z,20.25
2023-04-08T05:59:53.593Z,20.20
2023-04-08T06:02:20.298Z,20.16
2023-04-08T06:04:47.237Z,20.11
2023-04-08T06:07:13.945Z,20.06
2023-04-08T06:09:40.595Z,20.01
2023-04-08T06:12:07.167Z,19.97
2023-04-08T06:14:33.740Z,19.93
2023-04-08T06:17:00.491Z,19.88
2023-04-08T06:19:27.232Z,19.86
2023-04-08T06:21:58.809Z,19.81
2023-04-08T06:24:27.339Z,19.78
2023-04-08T06:26:54.254Z,19.73
2023-04-08T06:29:24.052Z,19.70
2023-04-08T06:31:51.229Z,19.66
2023-04-08T06:34:18.018Z,19.62
2023-04-08T06:36:44.693Z,19.59
2023-04-08T06:39:11.363Z,19.56
2023-04-08T06:41:38.059Z,19.53
2023-04-08T06:44:04.806Z,19.51
2023-04-08T06:46:31.464Z,19.47
2023-04-08T06:48:58.200Z,19.43
2023-04-08T06:51:24.822Z,19.41
2023-04-08T06:53:51.432Z,19.37
2023-04-08T06:56:18.002Z,19.34
2023-04-08T06:58:44.630Z,19.31
2023-04-08T07:01:11.470Z,19.29
2023-04-08T07:03:38.258Z,19.26
2023-04-08T07:06:05.249Z,19.23
2023-04-08T07:08:31.863Z,19.20
2023-04-08T07:10:58.441Z,19.16
2023-04-08T07:13:25.099Z,19.15
2023-04-08T07:15:51.998Z,19.11
2023-04-08T07:18:18.686Z,19.10
2023-04-08T07:20:45.493Z,19.07
2023-04-08T07:23:12.085Z,19.05
2023-04-08T07:25:38.692Z,19.05
2023-04-08T07:28:05.361Z,19.07
2023-04-08T07:30:32.108Z,19.08
2023-04-08T07:33:00.809Z,19.09
2023-04-08T07:35:28.107Z,19.11
2023-04-08T07:37:55.102Z,19.12
2023-04-08T07:40:21.690Z,19.13
2023-04-08T07:42:48.293Z,19.15
2023-04-08T07:45:15.452Z,19.17
2023-04-08T07:47:42.251Z,19.17
2023-04-08T07:50:09.108Z,19.17
2023-04-08T07:52:35.900Z,19.18
2023-04-08T07:55:05.837Z,19.18
2023-04-08T07:57:32.829Z,19.19
2023-04-08T07:59:59.498Z,19.18
2023-04-08T08:02:26.519Z,19.17
2023-04-08T08:04:53.389Z,19.17
2023-04-08T08:07:20.203Z,19.16
2023-04-08T08:09:46.790Z,19.15
2023-04-08T08:12:13.349Z,19.14
2023-04-08T08:14:39.959Z,19.11
2023-04-08T08:17:06.596Z,19.11
2023-04-08T08:19:33.234Z,19.10
2023-04-08T08:22:00.007Z,19.08
2023-04-08T08:24:26.696Z,19.07
2023-04-08T08:26:54.472Z,19.04
2023-04-08T08:29:21.124Z,19.05
2023-04-08T08:31:48.638Z,19.02
2023-04-08T08:34:15.557Z,19.01
2023-04-08T08:36:42.186Z,18.99
2023-04-08T08:39:08.789Z,18.97
2023-04-08T08:41:36.582Z,18.96
2023-04-08T08:44:05.477Z,18.93
2023-04-08T08:46:32.099Z,18.92
2023-04-08T08:48:58.836Z,18.90
2023-04-08T08:51:26.291Z,18.89
2023-04-08T08:53:53.206Z,18.88
2023-04-08T08:56:20.002Z,18.86
2023-04-08T08:58:47.707Z,18.85
2023-04-08T09:01:33.677Z,18.84
2023-04-08T09:04:16.013Z,18.84
2023-04-08T09:06:43.105Z,18.83
2023-04-08T09:09:12.478Z,18.82
2023-04-08T09:11:40.825Z,18.80
2023-04-08T09:14:26.144Z,18.80
2023-04-08T09:16:55.430Z,18.80
2023-04-08T09:19:22.088Z,18.79
2023-04-08T09:22:05.010Z,18.79
2023-04-08T09:24:32.083Z,18.76
2023-04-08T09:26:58.744Z,18.76
2023-04-08T09:29:28.135Z,18.76
2023-04-08T09:31:58.247Z,18.74
2023-04-08T09:34:25.591Z,18.75
2023-04-08T09:36:52.594Z,18.75
2023-04-08T09:39:19.378Z,18.75
2023-04-08T09:41:48.536Z,18.74
2023-04-08T09:44:16.665Z,18.73
2023-04-08T09:46:49.286Z,18.72
2023-04-08T09:49:25.085Z,18.72
2023-04-08T09:51:53.649Z,18.71
2023-04-08T09:54:21.742Z,18.71
2023-04-08T09:56:51.740Z,18.71
2023-04-08T09:59:21.008Z,18.69
2023-04-08T10:01:53.322Z,18.68
2023-04-08T10:04:21.174Z,18.69
2023-04-08T10:06:53.843Z,18.68
2023-04-08T10:09:23.670Z,18.67
2023-04-08T10:11:50.536Z,18.67
2023-04-08T10:14:17.548Z,18.67
2023-04-08T10:16:44.236Z,18.67
2023-04-08T10:19:42.983Z,18.67
2023-04-08T10:22:34.384Z,18.64
2023-04-08T10:25:19.277Z,18.65
2023-04-08T10:27:45.985Z,18.65
2023-04-08T10:30:27.837Z,18.64
2023-04-08T10:33:01.948Z,18.64
2023-04-08T10:35:33.027Z,18.64
2023-04-08T10:37:59.896Z,18.64
2023-04-08T10:40:26.956Z,18.63
2023-04-08T10:42:57.234Z,18.64
2023-04-08T10:45:24.118Z,18.65
2023-04-08T10:47:50.963Z,18.64
2023-04-08T10:50:18.718Z,18.65
2023-04-08T10:52:52.129Z,18.65
2023-04-08T10:55:27.453Z,18.64
2023-04-08T10:57:55.865Z,18.64
2023-04-08T11:00:34.904Z,18.64
2023-04-08T11:03:03.187Z,18.64
2023-04-08T11:05:29.961Z,18.64
2023-04-08T11:07:56.727Z,18.63
2023-04-08T11:10:23.327Z,18.63
2023-04-08T11:12:50.418Z,18.64
2023-04-08T11:15:17.317Z,18.64
2023-04-08T11:17:44.725Z,18.64
2023-04-08T11:20:11.508Z,18.65
2023-04-08T11:22:38.159Z,18.64
2023-04-08T11:25:05.151Z,18.64
2023-04-08T11:27:31.859Z,18.63
2023-04-08T11:29:59.277Z,18.63
2023-04-08T11:32:26.049Z,18.65
2023-04-08T11:34:53.408Z,18.64
2023-04-08T11:37:20.137Z,18.65
2023-04-08T11:39:46.851Z,18.64
2023-04-08T11:42:29.740Z,18.64
2023-04-08T11:44:56.529Z,18.64
2023-04-08T11:47:32.849Z,18.65
2023-04-08T11:49:59.779Z,18.64
2023-04-08T11:52:48.496Z,18.64
2023-04-08T11:55:28.911Z,18.63
2023-04-08T11:57:56.275Z,18.64
2023-04-08T12:00:23.543Z,18.64
2023-04-08T12:02:51.204Z,18.63
2023-04-08T12:05:17.901Z,18.64
2023-04-08T12:07:44.570Z,18.64
2023-04-08T12:10:11.492Z,18.63
2023-04-08T12:12:38.541Z,18.63
2023-04-08T12:15:05.673Z,18.63
2023-04-08T12:17:32.313Z,18.63
2023-04-08T12:19:58.906Z,18.63
2023-04-08T12:22:25.762Z,18.64
2023-04-08T12:24:52.407Z,18.63
2023-04-08T12:27:19.063Z,18.64
2023-04-08T12:29:46.234Z,18.64
2023-04-08T12:32:13.460Z,18.65
2023-04-08T12:34:40.536Z,18.64
2023-04-08T12:37:07.228Z,18.64
2023-04-08T12:39:33.916Z,18.65
2023-04-08T12:42:00.510Z,18.64
2023-04-08T12:44:27.245Z,18.65
2023-04-08T12:46:54.805Z,18.65
2023-04-08T12:49:21.500Z,18.66
2023-04-08T12:51:48.100Z,18.66
2023-04-08T12:54:14.745Z,18.66
2023-04-08T12:56:43.232Z,18.66
2023-04-08T12:59:10.040Z,18.66
2023-04-08T13:01:36.756Z,18.66
2023-04-08T13:04:03.683Z,18.66
2023-04-08T13:06:30.763Z,18.67
2023-04-08T13:08:57.424Z,18.66
2023-04-08T13:11:24.048Z,18.65
2023-04-08T13:13:50.712Z,18.66
2023-04-08T13:16:17.526Z,18.66
2023-04-08T13:18:44.190Z,18.66
2023-04-08T13:21:11.014Z,18.66
2023-04-08T13:23:37.687Z,18.65
2023-04-08T13:26:04.322Z,18.64
2023-04-08T13:28:31.045Z,18.65
2023-04-08T13:30:57.682Z,18.65
2023-04-08T13:33:24.260Z,18.67
2023-04-08T13:35:51.022Z,18.66
2023-04-08T13:38:17.971Z,18.67
2023-04-08T13:40:45.996Z,18.67
2023-04-08T13:43:14.589Z,18.65
2023-04-08T13:45:41.873Z,18.66
2023-04-08T13:48:08.696Z,18.67
2023-04-08T13:50:35.473Z,18.65
2023-04-08T13:53:02.302Z,18.65
2023-04-08T13:55:28.976Z,18.64
2023-04-08T13:57:56.144Z,18.66
2023-04-08T14:00:22.970Z,18.65
2023-04-08T14:02:51.088Z,18.65
2023-04-08T14:05:18.032Z,18.64
2023-04-08T14:07:44.785Z,18.64
2023-04-08T14:10:11.442Z,18.65
2023-04-08T14:12:38.048Z,18.63
2023-04-08T14:15:05.059Z,18.65
2023-04-08T14:17:32.058Z,18.64
2023-04-08T14:19:59.587Z,18.63
2023-04-08T14:22:26.169Z,18.64
2023-04-08T14:24:52.767Z,18.64
2023-04-08T14:27:19.469Z,18.64
2023-04-08T14:29:46.234Z,18.64
2023-04-08T14:32:13.261Z,18.63
2023-04-08T14:34:39.858Z,18.65
2023-04-08T14:37:06.427Z,18.64
2023-04-08T14:39:33.099Z,18.65
2023-04-08T14:41:59.689Z,18.63
2023-04-08T14:44:26.319Z,18.64
2023-04-08T14:46:52.966Z,18.64
2023-04-08T14:49:19.707Z,18.64
2023-04-08T14:51:46.452Z,18.63
2023-04-08T14:54:14.234Z,18.62
2023-04-08T14:56:40.923Z,18.62
2023-04-08T14:59:07.566Z,18.62
2023-04-08T15:01:34.317Z,18.62
2023-04-08T15:04:01.076Z,18.61
2023-04-08T15:06:28.558Z,18.61
2023-04-08T15:08:55.161Z,18.59
2023-04-08T15:11:21.970Z,18.59
2023-04-08T15:13:48.609Z,18.59
2023-04-08T15:16:15.627Z,18.60
2023-04-08T15:18:42.345Z,18.58
2023-04-08T15:21:09.050Z,18.59
2023-04-08T15:23:35.910Z,18.58
2023-04-08T15:26:02.906Z,18.58
2023-04-08T15:28:29.560Z,18.59
2023-04-08T15:30:56.204Z,18.60
2023-04-08T15:33:22.845Z,18.61
2023-04-08T15:35:49.610Z,18.60
2023-04-08T15:38:16.346Z,18.60
2023-04-08T15:40:43.981Z,18.59
2023-04-08T15:43:11.346Z,18.59
2023-04-08T15:45:42.821Z,18.59
2023-04-08T15:48:11.607Z,18.58
2023-04-08T15:50:38.735Z,18.58
2023-04-08T15:53:05.781Z,18.58
2023-04-08T15:55:37.544Z,18.58
2023-04-08T15:58:04.103Z,18.58
2023-04-08T16:00:31.487Z,18.59
2023-04-08T16:02:58.258Z,18.59
2023-04-08T16:05:24.991Z,18.59
2023-04-08T16:07:51.896Z,18.57
2023-04-08T16:10:18.642Z,18.58
2023-04-08T16:12:46.223Z,18.57
2023-04-08T16:15:13.110Z,18.58
2023-04-08T16:17:39.805Z,18.58
2023-04-08T16:20:06.960Z,18.56
2023-04-08T16:22:33.606Z,18.56
2023-04-08T16:25:00.587Z,18.55
2023-04-08T16:27:27.227Z,18.57
2023-04-08T16:29:53.885Z,18.56
2023-04-08T16:32:20.489Z,18.57
2023-04-08T16:34:47.070Z,18.56
2023-04-08T16:37:14.860Z,18.57
2023-04-08T16:39:42.284Z,18.56
2023-04-08T16:42:09.056Z,18.57
2023-04-08T16:44:35.670Z,18.56
2023-04-08T16:47:02.302Z,18.56
2023-04-08T16:49:28.985Z,18.56
2023-04-08T16:51:55.599Z,18.56
2023-04-08T16:54:22.200Z,18.55
2023-04-08T16:56:48.789Z,18.56
2023-04-08T16:59:15.457Z,18.56
2023-04-08T17:01:43.244Z,18.56
2023-04-08T17:04:09.913Z,18.56
2023-04-08T17:06:37.659Z,18.56
2023-04-08T17:09:04.372Z,18.57
2023-04-08T17:11:31.184Z,18.57
2023-04-08T17:13:57.843Z,18.56
2023-04-08T17:16:24.490Z,18.57
2023-04-08T17:18:51.410Z,18.56
2023-04-08T17:21:18.138Z,18.56
2023-04-08T17:23:47.419Z,18.57
2023-04-08T17:26:14.502Z,18.58
2023-04-08T17:28:41.127Z,18.57
2023-04-08T17:31:07.833Z,18.57
2023-04-08T17:33:34.423Z,18.57
2023-04-08T17:36:01.542Z,18.57
2023-04-08T17:38:28.249Z,18.56
2023-04-08T17:40:54.883Z,18.57
2023-04-08T17:43:21.579Z,18.57
2023-04-08T17:45:52.374Z,18.57
2023-04-08T17:48:19.054Z,18.57
2023-04-08T17:50:45.735Z,18.57
2023-04-08T17:53:12.386Z,18.56
2023-04-08T17:55:39.071Z,18.57
2023-04-08T17:58:05.811Z,18.58
2023-04-08T18:00:32.449Z,18.58
2023-04-08T18:02:59.257Z,18.57
2023-04-08T18:05:27.279Z,18.56
2023-04-08T18:07:53.909Z,18.57
2023-04-08T18:10:20.752Z,18.58
2023-04-08T18:12:48.978Z,18.57
2023-04-08T18:15:15.880Z,18.57
2023-04-08T18:17:44.574Z,18.57
2023-04-08T18:20:11.396Z,18.56
2023-04-08T18:22:38.066Z,18.57
2023-04-08T18:25:06.454Z,18.57
2023-04-08T18:27:33.634Z,18.57
2023-04-08T18:30:00.439Z,18.56
2023-04-08T18:32:27.285Z,18.56
2023-04-08T18:34:54.174Z,18.56
2023-04-08T18:37:21.664Z,18.56
2023-04-08T18:39:48.558Z,18.56
2023-04-08T18:42:15.478Z,18.57
2023-04-08T18:44:42.789Z,18.56
2023-04-08T18:47:09.752Z,18.56
2023-04-08T18:49:38.565Z,18.57
2023-04-08T18:52:06.640Z,18.55
2023-04-08T18:54:33.257Z,18.56
2023-04-08T18:56:59.900Z,18.56
2023-04-08T18:59:30.073Z,18.56
2023-04-08T19:01:57.115Z,18.55
2023-04-08T19:04:23.987Z,18.56
2023-04-08T19:06:50.736Z,18.56
2023-04-08T19:09:17.413Z,18.56
2023-04-08T19:11:44.019Z,18.56
2023-04-08T19:14:10.961Z,18.55
2023-04-08T19:16:39.339Z,18.56
2023-04-08T19:19:07.699Z,18.55
2023-04-08T19:21:37.673Z,18.55
2023-04-08T19:24:06.238Z,18.55
2023-04-08T19:26:33.672Z,18.55
2023-04-08T19:29:01.103Z,18.55
2023-04-08T19:31:27.808Z,18.56
2023-04-08T19:33:54.535Z,18.55
2023-04-08T19:36:21.294Z,18.54
2023-04-08T19:38:47.882Z,18.55
2023-04-08T19:41:14.472Z,18.55
2023-04-08T19:43:41.173Z,18.55
2023-04-08T19:46:08.708Z,18.54
2023-04-08T19:48:35.711Z,18.54
2023-04-08T19:51:03.382Z,18.53
2023-04-08T19:53:30.650Z,18.53
2023-04-08T19:56:01.638Z,18.54
2023-04-08T19:58:28.625Z,18.54
2023-04-08T20:00:55.302Z,18.54
2023-04-08T20:03:22.192Z,18.54
2023-04-08T20:05:49.240Z,18.54
2023-04-08T20:08:16.149Z,18.53
2023-04-08T20:10:42.867Z,18.53
2023-04-08T20:13:09.508Z,18.51
2023-04-08T20:15:36.352Z,18.54
2023-04-08T20:18:03.080Z,18.53
2023-04-08T20:20:30.114Z,18.52
2023-04-08T20:22:56.782Z,18.52
2023-04-08T20:25:23.418Z,18.51
2023-04-08T20:27:50.040Z,18.53
2023-04-08T20:30:16.698Z,18.51
2023-04-08T20:32:43.343Z,18.51
2023-04-08T20:35:10.069Z,18.51
2023-04-08T20:37:36.973Z,18.51
2023-04-08T20:40:04.010Z,18.51
2023-04-08T20:42:30.659Z,18.53
2023-04-08T20:44:57.440Z,18.51
2023-04-08T20:47:24.872Z,18.52
2023-04-08T20:49:51.625Z,18.51
2023-04-08T20:52:18.200Z,18.52
2023-04-08T20:54:44.832Z,18.51
2023-04-08T20:57:11.606Z,18.51
2023-04-08T20:59:38.390Z,18.51
2023-04-08T21:02:05.679Z,18.51
2023-04-08T21:04:32.382Z,18.51
2023-04-08T21:06:59.084Z,18.51
2023-04-08T21:09:25.747Z,18.51
2023-04-08T21:11:52.401Z,18.51
2023-04-08T21:14:19.239Z,18.51
2023-04-08T21:16:46.070Z,18.52
2023-04-08T21:19:12.738Z,18.52
2023-04-08T21:21:40.031Z,18.53
2023-04-08T21:24:07.128Z,18.53
2023-04-08T21:26:33.953Z,18.52
2023-04-08T21:29:00.743Z,18.52
2023-04-08T21:31:27.457Z,18.51
2023-04-08T21:33:54.412Z,18.52
2023-04-08T21:36:21.041Z,18.52
2023-04-08T21:38:47.631Z,18.54
2023-04-08T21:41:14.300Z,18.52
2023-04-08T21:43:41.394Z,18.52
2023-04-08T21:46:08.744Z,18.52
2023-04-08T21:48:35.469Z,18.53
2023-04-08T21:51:02.092Z,18.52
2023-04-08T21:53:28.665Z,18.54
2023-04-08T21:55:55.679Z,18.53
2023-04-08T21:58:22.402Z,18.52
2023-04-08T22:00:50.716Z,18.54
2023-04-08T22:03:17.490Z,18.54
2023-04-08T22:05:44.242Z,18.54
2023-04-08T22:08:10.899Z,18.54
2023-04-08T22:10:37.630Z,18.54
2023-04-08T22:13:04.277Z,18.54
2023-04-08T22:15:31.181Z,18.54
2023-04-08T22:17:58.952Z,18.53
2023-04-08T22:20:25.810Z,18.54
2023-04-08T22:22:53.041Z,18.55
2023-04-08T22:25:19.721Z,18.53
2023-04-08T22:27:46.666Z,18.53
2023-04-08T22:30:13.536Z,18.53
2023-04-08T22:32:40.245Z,18.54
2023-04-08T22:35:07.262Z,18.54
2023-04-08T22:37:33.940Z,18.53
2023-04-08T22:40:01.147Z,18.54
2023-04-08T22:42:27.802Z,18.53
2023-04-08T22:44:54.526Z,18.54
2023-04-08T22:47:21.421Z,18.54
2023-04-08T22:49:48.024Z,18.54
2023-04-08T22:52:14.677Z,18.54
2023-04-08T22:54:41.346Z,18.54
2023-04-08T22:57:07.963Z,18.53
2023-04-08T22:59:34.810Z,18.53
2023-04-08T23:02:02.082Z,18.53
2023-04-08T23:04:28.819Z,18.53
2023-04-08T23:06:55.442Z,18.54
2023-04-08T23:09:23.736Z,18.54
2023-04-08T23:11:50.701Z,18.54
2023-04-08T23:14:17.345Z,18.52
2023-04-08T23:16:43.958Z,18.53
2023-04-08T23:19:11.536Z,18.53
2023-04-08T23:21:38.298Z,18.53
2023-04-08T23:24:05.538Z,18.53
2023-04-08T23:26:32.138Z,18.53
2023-04-08T23:28:58.738Z,18.54
2023-04-08T23:31:26.843Z,18.52
2023-04-08T23:33:53.540Z,18.53
2023-04-08T23:36:20.249Z,18.53
2023-04-08T23:38:46.953Z,18.53
2023-04-08T23:41:13.570Z,18.53
2023-04-08T23:43:40.355Z,18.53
2023-04-08T23:46:06.990Z,18.53
2023-04-08T23:48:33.576Z,18.53
2023-04-08T23:51:00.509Z,18.53
2023-04-08T23:53:27.119Z,18.53
2023-04-08T23:55:53.785Z,18.52
2023-04-08T23:58:20.527Z,18.53
